M\t Procida — IBJT — position and weather

sailwx.info

Track history (hours):
 
Tides and Currents Weather Stations Pressure Air Temp Water Temp Dewpoint Dewpoint Depression Visibility Wind Speed Wind Dir Waves Ship Positions

M\t Procida

Last reported at 2015-May-28 17:31 UTC. Time now 2015-May-28 22:10 UTC.
Position N 37°46' E 024°18'.

Length 149 m; draft 7 m.

Type: Ship (hazmat cat D). MMSI: 247258400.

Date/timePositionNaut miles runAvg speedWind from/ knotsBaromVisibWave heightAir tempDewpointWater temp
2015-May-28 17:31N 37°46' E 024°18'1111.6
2015-May-28 16:32N 37°53' E 024°30'  
2015-May-23 23:29N 38°19' E 024°56'3812.2
2015-May-23 20:24N 37°49' E 024°27'1112.0
2015-May-23 19:31N 37°42' E 024°16'1212.2
2015-May-23 18:33N 37°33' E 024°06'1211.7
2015-May-23 17:33N 37°23' E 023°60'1211.6
2015-May-23 16:33N 37°12' E 023°57'2 2.0
2015-May-23 15:34N 37°10' E 023°55'6 6.4
2015-May-23 14:33N 37°04' E 023°53'1 0.9
2015-May-23 13:33N 37°04' E 023°52'1 0.9
2015-May-23 12:33N 37°04' E 023°51'1 0.8
2015-May-23 11:32N 37°03' E 023°50'1 0.9
2015-May-23 10:33N 37°03' E 023°49'1 0.8
2015-May-23 09:33N 37°02' E 023°48'1 0.8
2015-May-23 08:33N 37°02' E 023°47'10 9.0
2015-May-23 07:26N 36°55' E 023°39'3811.6
2015-May-23 04:07N 36°23' E 023°12'39911.5
2015-May-21 17:16N 35°52' E 014°60'6 8.8
2015-May-21 16:33N 35°52' E 014°52'0 0.1
2015-May-21 15:31N 35°52' E 014°52'0 0.0
2015-May-21 14:22N 35°52' E 014°52'0 0.1
2015-May-21 13:34N 35°52' E 014°52'0 0.1
2015-May-21 12:34N 35°52' E 014°52'0 0.0
2015-May-21 11:31N 35°52' E 014°52'0 0.0
2015-May-21 10:31N 35°52' E 014°52'0 0.0
2015-May-21 09:30N 35°52' E 014°52'0 0.0
2015-May-21 08:34N 35°52' E 014°52'0 0.1
2015-May-21 07:33N 35°52' E 014°52'0 0.1
2015-May-21 06:34N 35°52' E 014°52'0 0.1
2015-May-21 05:31N 35°52' E 014°52'0 0.0
2015-May-21 04:33N 35°52' E 014°52'0 0.1
2015-May-21 03:31N 35°52' E 014°52'0 0.0
2015-May-21 02:34N 35°52' E 014°52'0 0.0
2015-May-21 01:33N 35°52' E 014°52'0 0.0
2015-May-21 00:34N 35°52' E 014°52'0 0.0
2015-May-20 23:34N 35°52' E 014°52'0 0.0
2015-May-20 22:34N 35°52' E 014°52'0 0.0
2015-May-20 21:34N 35°52' E 014°52'0 0.1
2015-May-20 20:34N 35°52' E 014°52'3 2.9
2015-May-20 19:34N 35°50' E 014°49'0 0.2
2015-May-20 18:34N 35°50' E 014°49'0 0.2
2015-May-20 17:34N 35°50' E 014°49'0 0.2
2015-May-20 16:34N 35°50' E 014°49'0 0.1
2015-May-20 15:33N 35°50' E 014°49'0 0.1
2015-May-20 14:33N 35°50' E 014°49'0 0.2
2015-May-20 13:34N 35°50' E 014°49'2 1.6
2015-May-20 12:34N 35°51' E 014°51'0 0.2
2015-May-20 11:34N 35°51' E 014°51'0 0.5
2015-May-20 10:34N 35°51' E 014°50'1 0.6
2015-May-20 09:34N 35°50' E 014°50'0 0.3
2015-May-20 08:34N 35°50' E 014°50'3 3.3
2015-May-20 07:34N 35°53' E 014°52'9 9.3
2015-May-20 06:34N 36°02' E 014°55'1111.4
2015-May-20 05:34N 36°12' E 014°60'1010.5
2015-May-20 04:34N 36°22' E 015°04'1210.6
2015-May-20 03:25N 36°33' E 015°11'1011.0
2015-May-20 02:33N 36°42' E 015°16'  
Track history (hours):
 
Tides and Currents Weather Stations Pressure Air Temp Water Temp Dewpoint Dewpoint Depression Visibility Wind Speed Wind Dir Waves Ship Positions

M\t Procida

Last reported at 2015-May-28 17:31 UTC. Time now 2015-May-28 22:10 UTC.
Position N 37°46' E 024°18'.

Length 149 m; draft 7 m.

Type: Ship (hazmat cat D). MMSI: 247258400.

Date/timePositionNaut miles runAvg speedWind from/ knotsBaromVisibWave heightAir tempDewpointWater temp
2015-May-28 17:31N 37°46' E 024°18'1111.6
2015-May-28 16:32N 37°53' E 024°30'  
2015-May-23 23:29N 38°19' E 024°56'3812.2
2015-May-23 20:24N 37°49' E 024°27'1112.0
2015-May-23 19:31N 37°42' E 024°16'1212.2
2015-May-23 18:33N 37°33' E 024°06'1211.7
2015-May-23 17:33N 37°23' E 023°60'1211.6
2015-May-23 16:33N 37°12' E 023°57'2 2.0
2015-May-23 15:34N 37°10' E 023°55'6 6.4
2015-May-23 14:33N 37°04' E 023°53'1 0.9
2015-May-23 13:33N 37°04' E 023°52'1 0.9
2015-May-23 12:33N 37°04' E 023°51'1 0.8
2015-May-23 11:32N 37°03' E 023°50'1 0.9
2015-May-23 10:33N 37°03' E 023°49'1 0.8
2015-May-23 09:33N 37°02' E 023°48'1 0.8
2015-May-23 08:33N 37°02' E 023°47'10 9.0
2015-May-23 07:26N 36°55' E 023°39'3811.6
2015-May-23 04:07N 36°23' E 023°12'39911.5
2015-May-21 17:16N 35°52' E 014°60'6 8.8
2015-May-21 16:33N 35°52' E 014°52'0 0.1
2015-May-21 15:31N 35°52' E 014°52'0 0.0
2015-May-21 14:22N 35°52' E 014°52'0 0.1
2015-May-21 13:34N 35°52' E 014°52'0 0.1
2015-May-21 12:34N 35°52' E 014°52'0 0.0
2015-May-21 11:31N 35°52' E 014°52'0 0.0
2015-May-21 10:31N 35°52' E 014°52'0 0.0
2015-May-21 09:30N 35°52' E 014°52'0 0.0
2015-May-21 08:34N 35°52' E 014°52'0 0.1
2015-May-21 07:33N 35°52' E 014°52'0 0.1
2015-May-21 06:34N 35°52' E 014°52'0 0.1
2015-May-21 05:31N 35°52' E 014°52'0 0.0
2015-May-21 04:33N 35°52' E 014°52'0 0.1
2015-May-21 03:31N 35°52' E 014°52'0 0.0
2015-May-21 02:34N 35°52' E 014°52'0 0.0
2015-May-21 01:33N 35°52' E 014°52'0 0.0
2015-May-21 00:34N 35°52' E 014°52'0 0.0
2015-May-20 23:34N 35°52' E 014°52'0 0.0
2015-May-20 22:34N 35°52' E 014°52'0 0.0
2015-May-20 21:34N 35°52' E 014°52'0 0.1
2015-May-20 20:34N 35°52' E 014°52'3 2.9
2015-May-20 19:34N 35°50' E 014°49'0 0.2
2015-May-20 18:34N 35°50' E 014°49'0 0.2
2015-May-20 17:34N 35°50' E 014°49'0 0.2
2015-May-20 16:34N 35°50' E 014°49'0 0.1
2015-May-20 15:33N 35°50' E 014°49'0 0.1
2015-May-20 14:33N 35°50' E 014°49'0 0.2
2015-May-20 13:34N 35°50' E 014°49'2 1.6
2015-May-20 12:34N 35°51' E 014°51'0 0.2
2015-May-20 11:34N 35°51' E 014°51'0 0.5
2015-May-20 10:34N 35°51' E 014°50'1 0.6
2015-May-20 09:34N 35°50' E 014°50'0 0.3
2015-May-20 08:34N 35°50' E 014°50'3 3.3
2015-May-20 07:34N 35°53' E 014°52'9 9.3
2015-May-20 06:34N 36°02' E 014°55'1111.4
2015-May-20 05:34N 36°12' E 014°60'1010.5
2015-May-20 04:34N 36°22' E 015°04'1210.6
2015-May-20 03:25N 36°33' E 015°11'1011.0
2015-May-20 02:33N 36°42' E 015°16'  

Dump ship's entire track history